Time;durP1;ratioP1;P1;durP2;ratioP2;P2;SDS_P1;SDS_P2;PMS_P1;PMS_P2;Temp;Humidity;BMP_temperature;BMP_pressure;BME280_temperature;BME280_humidity;BME280_pressure;Samples;Min_cycle;Max_cycle;Signal;HPM_P1;HPM_P2
2022/05/11 00:02:17;;;;;;;15.50;14.30;;;15.70;99.90;;;16.63;78.42;98008.63;5192612;28;20202;-58
2022/05/11 00:04:50;;;;;;;15.52;14.32;;;15.70;99.90;;;16.57;78.80;98005.84;5193113;28;20240;-52
2022/05/11 00:07:23;;;;;;;16.27;15.05;;;15.60;99.90;;;16.56;79.33;98001.50;5224076;27;20204;-58
2022/05/11 00:09:56;;;;;;;15.27;14.18;;;15.60;99.90;;;16.56;78.34;97998.03;5196691;28;20218;-52
2022/05/11 00:12:30;;;;;;;15.60;14.50;;;15.60;99.90;;;16.55;78.86;97993.72;5197028;28;20665;-58
2022/05/11 00:15:05;;;;;;;15.13;14.02;;;15.60;99.90;;;16.35;78.92;97990.41;5198895;28;20318;-59
2022/05/11 00:17:39;;;;;;;15.77;14.55;;;15.50;99.90;;;16.39;79.34;97992.25;5195325;28;20776;-59
2022/05/11 00:20:14;;;;;;;15.40;14.20;;;15.40;99.90;;;16.36;79.02;97994.72;5190912;28;20226;-59
2022/05/11 00:22:47;;;;;;;15.80;14.52;;;15.40;99.90;;;16.37;79.86;97991.34;5196215;28;20621;-55
2022/05/11 00:25:24;;;;;;;15.45;14.35;;;15.40;99.90;;;16.30;80.18;97994.50;5200891;28;20194;-59
2022/05/11 00:27:59;;;;;;;15.43;14.25;;;15.40;99.90;;;16.32;79.90;97990.28;5195756;28;20226;-59
2022/05/11 00:30:34;;;;;;;15.30;14.18;;;15.30;99.90;;;16.26;79.91;97990.06;5201402;28;20221;-58
2022/05/11 00:33:13;;;;;;;15.90;14.65;;;15.30;99.90;;;16.24;80.02;97981.41;5197594;28;20202;-57
2022/05/11 00:35:48;;;;;;;16.67;15.25;;;15.30;99.90;;;16.24;80.02;97982.28;5199228;28;20222;-52
2022/05/11 00:38:25;;;;;;;16.67;15.23;;;15.20;99.90;;;16.12;80.00;97990.44;5190490;28;20466;-54
2022/05/11 00:41:00;;;;;;;15.95;14.57;;;15.20;99.90;;;15.95;79.93;97994.09;5198377;28;20308;-55
2022/05/11 00:43:38;;;;;;;16.23;15.10;;;15.00;99.90;;;15.85;80.48;97985.13;5192793;28;20217;-54
2022/05/11 00:46:20;;;;;;;15.77;14.57;;;14.90;99.90;;;15.87;80.96;97990.31;5196887;28;20274;-52
2022/05/11 00:51:54;;;;;;;15.48;14.27;;;15.00;99.90;;;15.92;80.31;97981.94;5195988;28;20212;-53
2022/05/11 00:54:30;;;;;;;16.00;14.82;;;15.00;99.90;;;15.84;80.81;97985.06;5200785;28;20221;-57
2022/05/11 00:57:08;;;;;;;15.13;14.02;;;14.90;99.90;;;15.81;81.42;97978.09;5200051;27;20205;-59
2022/05/11 00:59:46;;;;;;;16.85;15.50;;;14.90;99.90;;;15.75;81.93;97981.31;5193700;28;20271;-59
2022/05/11 01:02:23;;;;;;;17.13;15.50;;;14.90;99.90;;;15.77;81.72;97974.50;5193322;28;20231;-52
2022/05/11 01:05:04;;;;;;;16.48;15.27;;;14.90;99.90;;;15.74;82.15;97976.09;5195543;28;20289;-55
2022/05/11 01:07:39;;;;;;;15.88;14.75;;;14.80;99.90;;;15.65;82.11;97976.59;5200781;27;20297;-53
2022/05/11 01:10:12;;;;;;;16.92;15.68;;;14.80;99.90;;;15.64;82.10;97977.41;5191744;28;20222;-53
2022/05/11 01:12:48;;;;;;;15.25;14.05;;;14.70;99.90;;;15.60;81.89;97977.22;5190034;28;20198;-54
2022/05/11 01:15:22;;;;;;;16.52;15.25;;;14.60;99.90;;;15.51;82.23;97978.63;5184474;28;20301;-54
2022/05/11 01:17:57;;;;;;;16.42;15.00;;;14.60;99.90;;;15.51;83.11;97970.91;5197220;28;20294;-59
2022/05/11 01:20:33;;;;;;;16.35;15.15;;;14.60;99.90;;;15.48;82.72;97980.19;5183272;28;20287;-52
2022/05/11 01:23:17;;;;;;;17.00;15.70;;;14.60;99.90;;;15.50;82.21;97981.13;5198944;28;20286;-56
2022/05/11 01:25:53;;;;;;;17.27;15.88;;;14.60;99.90;;;15.44;82.89;97980.88;5184897;28;20198;-55
2022/05/11 01:28:26;;;;;;;17.15;15.85;;;14.60;99.90;;;15.41;82.52;97976.50;5190681;28;20194;-57
2022/05/11 01:31:04;;;;;;;17.33;15.98;;;14.50;99.90;;;15.36;82.89;97972.84;5185045;28;20280;-52
2022/05/11 01:33:43;;;;;;;15.98;14.75;;;14.40;99.90;;;15.30;82.82;97973.47;5193348;28;20300;-58
2022/05/11 01:36:25;;;;;;;16.60;15.30;;;14.40;99.90;;;15.28;82.86;97979.38;5189832;27;20218;-58
2022/05/11 01:39:01;;;;;;;16.58;15.35;;;14.40;99.90;;;15.30;82.48;97977.75;5192027;28;20941;-56
2022/05/11 01:41:39;;;;;;;16.63;15.43;;;14.40;99.90;;;15.26;82.13;97976.75;5190894;28;20313;-56
2022/05/11 01:44:16;;;;;;;16.25;14.95;;;14.30;99.90;;;15.24;82.64;97973.22;5185135;28;20206;-57
2022/05/11 01:46:52;;;;;;;15.98;14.77;;;14.30;99.90;;;15.18;82.10;97973.00;5191180;27;20745;-57
2022/05/11 01:49:27;;;;;;;16.45;15.20;;;14.20;99.90;;;15.13;82.77;97974.50;5197601;28;20197;-57
2022/05/11 01:52:00;;;;;;;16.95;15.60;;;14.20;99.90;;;15.13;82.18;97969.34;5194860;28;20213;-56
2022/05/11 01:54:33;;;;;;;16.25;15.00;;;14.20;99.90;;;15.14;82.15;97973.69;5186021;28;20293;-58
2022/05/11 01:57:08;;;;;;;16.70;15.25;;;14.20;99.90;;;15.13;82.88;97979.63;5192479;28;20251;-58
2022/05/11 01:59:41;;;;;;;16.35;14.95;;;14.20;99.90;;;15.11;83.27;97973.56;5186140;27;20219;-58
2022/05/11 02:02:14;;;;;;;15.80;14.65;;;14.20;99.90;;;15.14;83.49;97977.94;5192605;28;20293;-58
2022/05/11 02:07:50;;;;;;;16.80;15.50;;;14.10;99.90;;;15.05;83.10;97970.72;5187780;27;20289;-58
2022/05/11 02:10:28;;;;;;;16.23;15.13;;;14.10;99.90;;;15.05;83.43;97968.13;5188308;27;20321;-55
2022/05/11 02:13:02;;;;;;;17.15;15.75;;;14.10;99.90;;;15.04;83.18;97974.13;5190519;27;20660;-58
2022/05/11 02:15:36;;;;;;;17.50;16.10;;;14.10;99.90;;;14.89;83.74;97968.34;5189753;27;20304;-57
2022/05/11 02:18:09;;;;;;;16.73;15.27;;;14.00;99.90;;;14.77;83.57;97973.84;5186488;28;20682;-58
2022/05/11 02:20:42;;;;;;;17.08;15.77;;;13.90;99.90;;;14.77;84.54;97974.72;5184854;28;20276;-59
2022/05/11 02:23:17;;;;;;;16.65;15.45;;;13.90;99.90;;;14.83;84.54;97972.41;5189462;28;20738;-58
2022/05/11 02:25:52;;;;;;;17.52;16.13;;;14.00;99.90;;;14.82;85.25;97973.25;5189313;28;20198;-57
2022/05/11 02:28:26;;;;;;;17.13;15.82;;;14.00;99.90;;;14.78;84.97;97965.31;5189319;27;20226;-58
2022/05/11 02:31:00;;;;;;;16.98;15.57;;;13.90;99.90;;;14.74;85.45;97972.03;5192121;28;20870;-58
2022/05/11 02:33:33;;;;;;;17.27;15.95;;;13.90;99.90;;;14.68;85.56;97971.78;5190602;28;20205;-59
2022/05/11 02:36:06;;;;;;;18.98;17.42;;;13.80;99.90;;;14.73;85.90;97967.69;5190878;28;20345;-59
2022/05/11 02:38:42;;;;;;;17.88;16.48;;;13.80;99.90;;;14.75;86.26;97981.50;5188364;28;20691;-59
2022/05/11 02:41:15;;;;;;;19.52;17.75;;;13.90;99.90;;;14.76;86.73;97975.53;5187608;28;20221;-59
2022/05/11 02:43:50;;;;;;;17.50;16.20;;;13.90;99.90;;;14.75;85.76;97976.34;5193362;28;20234;-58
2022/05/11 02:46:23;;;;;;;16.90;15.60;;;13.90;99.90;;;14.71;86.21;97977.06;5194301;28;20240;-58
2022/05/11 02:48:57;;;;;;;17.02;15.77;;;13.80;99.90;;;14.69;85.56;97970.94;5196483;27;20732;-59
2022/05/11 02:51:30;;;;;;;16.48;15.27;;;13.70;99.90;;;14.64;85.41;97977.59;5186029;28;20222;-59
2022/05/11 02:54:03;;;;;;;17.08;15.70;;;13.70;99.90;;;14.56;85.06;97968.66;5192227;28;20281;-59
2022/05/11 02:56:36;;;;;;;16.63;15.25;;;13.70;99.90;;;14.41;84.59;97974.84;5187072;28;20218;-59
2022/05/11 02:59:10;;;;;;;16.98;15.57;;;13.50;99.90;;;14.21;86.05;97980.81;5191049;28;20208;-59
2022/05/11 03:01:43;;;;;;;16.27;15.07;;;13.40;99.90;;;14.21;86.56;97978.25;5188964;28;20217;-57
2022/05/11 03:04:17;;;;;;;17.75;16.45;;;13.40;99.90;;;14.25;86.50;97980.16;5189438;28;20202;-59
2022/05/11 03:06:50;;;;;;;16.50;15.18;;;13.40;99.90;;;14.25;86.52;97975.03;5193664;28;20202;-59
2022/05/11 03:09:23;;;;;;;18.20;16.80;;;13.40;99.90;;;14.27;87.49;97981.09;5187283;28;20230;-58
2022/05/11 03:11:56;;;;;;;16.63;15.32;;;13.40;99.90;;;14.22;87.48;97973.97;5191652;28;20719;-59
2022/05/11 03:14:30;;;;;;;17.20;15.95;;;13.40;99.90;;;14.20;87.73;97972.22;5202320;28;20205;-59
2022/05/11 03:17:04;;;;;;;17.15;15.77;;;13.40;99.90;;;14.26;86.20;97969.06;5192189;28;20248;-59
2022/05/11 03:19:37;;;;;;;16.88;15.70;;;13.40;99.90;;;14.13;87.54;97977.03;5191984;28;20222;-57
2022/05/11 03:22:10;;;;;;;18.00;16.70;;;13.30;99.90;;;14.14;87.75;97973.66;5210611;28;20198;-57
2022/05/11 03:24:43;;;;;;;17.60;16.27;;;13.30;99.90;;;14.17;88.12;97968.66;5189425;28;20226;-59
2022/05/11 03:27:17;;;;;;;16.80;15.50;;;13.40;99.90;;;14.19;88.26;97967.91;5189684;28;20222;-58
2022/05/11 03:29:53;;;;;;;17.15;15.85;;;13.40;99.90;;;14.22;87.43;97971.41;5193096;28;20312;-58
2022/05/11 03:35:14;;;;;;;16.63;15.23;;;13.40;99.90;;;14.20;87.69;97974.81;5151653;28;20202;-58
2022/05/11 03:37:47;;;;;;;17.00;15.70;;;13.40;99.90;;;14.17;87.18;97973.78;5200101;28;20648;-58
2022/05/11 03:40:20;;;;;;;17.38;15.88;;;13.40;99.90;;;14.18;87.33;97975.53;5191821;28;20246;-59
2022/05/11 03:42:53;;;;;;;17.05;15.73;;;13.30;99.90;;;14.14;87.65;97971.09;5195518;28;20597;-58
2022/05/11 03:45:28;;;;;;;16.90;15.50;;;13.30;99.90;;;14.13;87.30;97970.19;5195095;28;20214;-57
2022/05/11 03:48:01;;;;;;;16.40;14.93;;;13.30;99.90;;;14.16;86.13;97969.44;5186970;28;20256;-52
2022/05/11 03:50:34;;;;;;;15.27;14.07;;;13.30;99.90;;;14.15;85.75;97967.69;5212805;28;20253;-55
2022/05/11 03:53:08;;;;;;;14.95;13.85;;;13.20;99.90;;;14.11;85.84;97970.94;5192766;28;20293;-53
2022/05/11 03:55:41;;;;;;;15.13;13.90;;;13.20;99.90;;;14.02;86.11;97968.84;5187626;28;20314;-50
2022/05/11 03:58:15;;;;;;;16.05;14.77;;;13.10;99.90;;;14.04;86.34;97981.75;5193954;28;20205;-59
2022/05/11 04:00:49;;;;;;;15.98;14.77;;;13.20;99.90;;;13.85;86.49;97978.34;5188214;28;20697;-52
2022/05/11 04:03:23;;;;;;;15.52;14.27;;;13.00;99.90;;;13.96;87.28;97977.16;5189747;28;20234;-52
2022/05/11 04:05:56;;;;;;;16.63;15.32;;;13.10;99.90;;;13.96;87.12;97974.59;5191948;28;20199;-57
2022/05/11 04:08:29;;;;;;;15.82;14.52;;;13.10;99.90;;;13.90;87.69;97979.41;5184438;28;20201;-59
2022/05/11 04:11:02;;;;;;;15.68;14.48;;;13.10;99.90;;;13.96;88.04;97978.81;5209830;28;20253;-58
2022/05/11 04:13:36;;;;;;;17.67;16.17;;;13.10;99.90;;;13.91;88.17;97976.06;5183114;28;20195;-59
2022/05/11 04:16:10;;;;;;;16.13;14.82;;;13.10;99.90;;;13.94;87.40;97973.63;5186860;28;20218;-59
2022/05/11 04:18:44;;;;;;;18.02;16.58;;;13.10;99.90;;;14.01;88.93;97969.63;5186765;28;20209;-59
2022/05/11 04:21:17;;;;;;;17.65;16.25;;;13.20;99.90;;;14.12;87.89;97967.56;5191678;28;20717;-57
2022/05/11 04:23:50;;;;;;;18.08;16.67;;;13.40;99.90;;;14.24;87.94;97974.94;5220223;27;20241;-51
2022/05/11 04:26:23;;;;;;;17.95;16.35;;;13.40;99.90;;;14.25;87.83;97967.31;5191868;28;20198;-51
2022/05/11 04:28:56;;;;;;;17.48;16.05;;;13.50;99.90;;;14.32;87.54;97977.03;5186817;27;20230;-54
2022/05/11 04:31:30;;;;;;;17.10;15.80;;;13.50;99.90;;;14.40;87.33;97967.09;5192320;28;20258;-54
2022/05/11 04:34:04;;;;;;;16.38;15.18;;;13.60;99.90;;;14.43;86.78;97968.09;5205502;27;20666;-54
2022/05/11 04:36:38;;;;;;;16.70;15.48;;;13.60;99.90;;;14.40;86.50;97978.25;5189182;28;20596;-57
2022/05/11 04:39:11;;;;;;;16.70;15.50;;;13.60;99.90;;;14.46;86.31;97975.06;5195801;28;20736;-58
2022/05/11 04:41:44;;;;;;;15.20;14.10;;;13.60;99.90;;;14.53;86.01;97974.53;5190232;28;20233;-58
2022/05/11 04:44:17;;;;;;;15.73;14.55;;;13.60;99.90;;;14.61;84.89;97975.75;5195869;28;20675;-59
2022/05/11 04:46:52;;;;;;;15.40;14.15;;;13.60;99.90;;;14.65;84.98;97979.38;5196538;28;20290;-58
2022/05/11 04:49:25;;;;;;;16.08;14.80;;;13.80;99.90;;;14.64;85.04;97975.00;5221605;27;20205;-59
2022/05/11 04:52:02;;;;;;;16.75;15.43;;;13.70;99.90;;;14.74;84.70;97974.59;5193641;28;20205;-50
2022/05/11 04:54:37;;;;;;;15.90;14.50;;;13.90;99.90;;;14.83;84.00;97972.41;5193575;28;20202;-56
2022/05/11 04:57:11;;;;;;;15.10;13.77;;;13.90;99.90;;;14.86;83.74;97975.13;5212383;27;20246;-59
2022/05/11 04:59:44;;;;;;;15.15;13.95;;;13.90;99.90;;;14.93;83.87;97975.38;5192665;28;20219;-58
2022/05/11 05:02:22;;;;;;;15.02;13.70;;;13.90;99.90;;;15.01;82.97;97968.84;5188666;28;20205;-59
2022/05/11 05:05:00;;;;;;;16.05;14.82;;;14.00;99.90;;;14.95;83.32;97964.31;5200583;27;20309;-57
2022/05/11 05:07:34;;;;;;;14.98;13.77;;;14.00;99.90;;;15.12;82.90;97967.59;5197602;27;20220;-58
2022/05/11 05:10:12;;;;;;;15.38;14.18;;;14.10;99.90;;;15.30;82.45;97978.63;5193431;28;20221;-56
2022/05/11 05:12:46;;;;;;;16.48;15.07;;;14.30;99.90;;;15.34;83.43;97974.50;5190579;28;20198;-57
2022/05/11 05:15:19;;;;;;;15.98;14.43;;;14.40;99.90;;;15.49;82.84;97971.66;5192402;28;20285;-57
2022/05/11 05:17:54;;;;;;;15.55;14.35;;;14.60;99.90;;;15.70;82.03;97969.94;5195020;27;20308;-57
2022/05/11 05:20:27;;;;;;;15.45;14.27;;;14.80;99.90;;;16.02;80.20;97970.28;5196898;28;20228;-58
2022/05/11 05:23:01;;;;;;;13.93;12.73;;;15.00;99.90;;;16.24;79.57;97973.66;5195231;28;20724;-57
2022/05/11 05:25:34;;;;;;;15.77;14.57;;;15.20;99.90;;;16.36;78.69;97966.34;5196859;28;20301;-59
2022/05/11 05:31:09;;;;;;;16.13;14.80;;;15.50;99.90;;;16.84;76.57;97974.97;5198977;28;20317;-59
2022/05/11 05:33:44;;;;;;;15.10;14.00;;;15.80;99.90;;;17.24;74.94;97981.47;5197157;28;20239;-58
2022/05/11 05:36:17;;;;;;;14.43;13.27;;;16.10;99.90;;;17.64;73.67;97976.72;5193215;28;20224;-60
2022/05/11 05:38:50;;;;;;;14.73;13.63;;;16.40;99.90;;;17.84;72.12;97985.97;5193459;28;20245;-58
2022/05/11 05:41:24;;;;;;;15.35;14.25;;;16.60;99.90;;;17.93;71.29;97987.97;5221815;27;20246;-59
2022/05/11 05:43:57;;;;;;;15.75;14.45;;;16.80;99.90;;;18.21;71.07;97987.94;5222109;27;20630;-59
2022/05/11 05:46:30;;;;;;;15.52;14.20;;;17.00;99.90;;;18.34;69.33;97984.03;5246832;27;20645;-59
2022/05/11 05:49:05;;;;;;;14.80;13.55;;;16.90;99.90;;;18.74;68.58;97985.13;5206812;27;20233;-59
2022/05/11 05:51:40;;;;;;;14.38;13.30;;;17.20;99.90;;;19.13;67.85;97987.00;5219743;27;20261;-59
2022/05/11 05:54:13;;;;;;;15.57;14.32;;;17.60;99.90;;;19.44;65.68;97985.19;5202326;28;20239;-59
2022/05/11 05:56:46;;;;;;;16.23;14.85;;;17.90;99.90;;;19.91;64.42;97986.31;5238643;27;20739;-58
2022/05/11 05:59:19;;;;;;;15.82;14.63;;;18.20;99.90;;;20.28;62.99;97988.81;5205589;27;20210;-59
2022/05/11 06:01:52;;;;;;;16.05;14.85;;;18.50;99.90;;;20.60;62.02;97984.31;5206782;27;20672;-60
2022/05/11 06:04:27;;;;;;;15.75;14.55;;;18.80;99.90;;;20.75;60.58;97981.16;5197347;28;20246;-59
2022/05/11 06:07:00;;;;;;;15.10;13.88;;;18.90;99.90;;;21.09;60.06;97986.09;5191967;28;20637;-58
2022/05/11 06:09:33;;;;;;;15.60;14.40;;;19.20;99.90;;;21.30;59.28;97987.31;5247367;27;20198;-59
2022/05/11 06:12:08;;;;;;;15.90;14.68;;;19.20;99.90;;;20.95;59.13;97977.19;5209219;27;20213;-57
2022/05/11 06:14:42;;;;;;;15.43;14.23;;;19.10;99.90;;;21.36;58.42;97972.72;5193175;28;20295;-60
2022/05/11 06:17:18;;;;;;;14.73;13.60;;;19.40;99.90;;;21.72;58.11;97975.84;5209113;27;20711;-60
2022/05/11 06:19:53;;;;;;;13.93;12.93;;;19.70;99.90;;;21.67;57.91;97967.13;5205774;27;20249;-58
2022/05/11 06:22:27;;;;;;;14.30;13.07;;;19.60;99.90;;;22.08;57.25;97970.28;5209768;27;21442;-60
2022/05/11 06:25:00;;;;;;;14.30;13.18;;;20.10;99.90;;;22.83;54.52;97963.38;5192512;28;20210;-60
2022/05/11 06:27:33;;;;;;;13.73;12.68;;;20.60;99.90;;;23.33;53.34;97965.63;5203100;27;20194;-60
2022/05/11 06:30:08;;;;;;;13.45;12.45;;;21.20;99.90;;;23.91;51.59;97969.53;5199765;27;20225;-59
2022/05/11 06:32:42;;;;;;;13.95;12.95;;;21.60;99.90;;;24.19;50.89;97962.72;5233655;27;20194;-60
2022/05/11 06:35:17;;;;;;;13.82;12.82;;;21.90;99.90;;;24.68;49.03;97961.19;5251250;27;20198;-59
2022/05/11 06:37:51;;;;;;;13.27;12.38;;;22.20;98.90;;;24.97;49.13;97951.66;5247048;27;20294;-59
2022/05/11 06:40:25;;;;;;;13.50;12.40;;;22.50;98.40;;;25.22;47.69;97963.06;5195547;28;20572;-59
2022/05/11 06:42:58;;;;;;;13.10;12.10;;;22.90;97.60;;;24.98;48.80;97956.91;5215944;27;20293;-59
2022/05/11 06:45:32;;;;;;;12.57;11.57;;;23.00;97.30;;;25.63;47.59;97957.78;5200860;27;20206;-59
2022/05/11 06:48:07;;;;;;;12.80;11.77;;;23.30;97.00;;;26.00;47.04;97969.09;5208825;27;20623;-59
2022/05/11 06:50:42;;;;;;;12.85;11.85;;;23.90;96.10;;;26.43;45.52;97958.44;5245297;27;20304;-58
2022/05/11 06:53:15;;;;;;;12.43;11.63;;;24.00;96.00;;;26.67;44.70;97952.25;5245887;27;20197;-59
2022/05/11 07:01:30;;;;;;;12.23;11.32;;;25.10;94.10;;;27.44;43.15;97950.84;5237909;27;20248;-60
2022/05/11 07:04:03;;;;;;;11.10;10.30;;;25.30;93.70;;;27.75;42.47;97949.66;5212756;28;20201;-59
2022/05/11 07:06:38;;;;;;;11.15;10.35;;;25.40;93.30;;;28.23;41.64;97946.56;5188283;28;20677;-59
2022/05/11 07:09:11;;;;;;;10.00;9.30;;;25.70;93.10;;;28.39;41.35;97948.13;5202954;28;20201;-59
2022/05/11 07:14:35;;;;;;;8.85;8.15;;;26.10;91.80;;;28.60;39.94;97940.88;5190839;28;20256;-59
2022/05/11 07:17:08;;;;;;;9.32;8.73;;;26.30;90.60;;;28.77;38.59;97941.50;5194591;28;20198;-60
2022/05/11 07:19:43;;;;;;;9.02;8.27;;;26.50;90.10;;;28.96;38.25;97944.75;5191620;28;20222;-59
2022/05/11 07:22:17;;;;;;;7.30;6.80;;;26.70;89.00;;;29.03;38.42;97946.41;5191846;28;20675;-61
2022/05/11 07:24:50;;;;;;;7.50;6.90;;;26.80;89.10;;;28.97;37.71;97946.47;5196618;28;20204;-61
2022/05/11 07:27:23;;;;;;;7.40;6.90;;;26.70;88.70;;;29.17;37.33;97949.69;5242255;28;20633;-60
2022/05/11 07:29:56;;;;;;;5.75;5.45;;;26.70;87.90;;;29.28;36.19;97951.28;5191465;28;20613;-60
2022/05/11 07:32:30;;;;;;;6.13;5.60;;;26.70;86.60;;;29.57;35.88;97949.03;5204719;28;20269;-61
2022/05/11 07:35:04;;;;;;;6.18;5.70;;;26.80;86.30;;;30.09;35.08;97937.53;5202762;28;20667;-60
2022/05/11 07:37:38;;;;;;;5.50;5.10;;;27.20;85.10;;;30.51;33.68;97929.66;5197618;28;20204;-61
2022/05/11 07:40:13;;;;;;;5.70;5.30;;;27.40;82.50;;;30.76;33.34;97934.38;5184622;28;20226;-61
2022/05/11 07:42:52;;;;;;;5.47;5.00;;;27.70;82.20;;;30.82;33.13;97936.94;5191916;28;20538;-56
2022/05/11 07:45:25;;;;;;;5.78;5.35;;;27.80;81.70;;;30.81;32.72;97932.53;5187968;28;20665;-55
2022/05/11 07:47:58;;;;;;;5.32;4.93;;;27.80;81.00;;;31.23;32.50;97929.78;5185100;28;20198;-55
2022/05/11 07:50:32;;;;;;;5.30;5.00;;;28.00;81.00;;;31.30;32.67;97931.34;5190412;28;20217;-56
2022/05/11 07:53:06;;;;;;;4.78;4.45;;;28.00;80.70;;;31.32;33.06;97928.69;5192036;28;20195;-55
2022/05/11 07:55:39;;;;;;;5.15;4.80;;;28.10;81.80;;;30.95;33.23;97930.44;5185957;28;20201;-57
2022/05/11 08:01:00;;;;;;;5.22;4.82;;;28.10;79.20;;;30.59;32.76;97923.34;5206785;28;20668;-57
2022/05/11 08:03:33;;;;;;;5.07;4.68;;;28.00;78.90;;;30.56;32.97;97920.75;5202996;28;20250;-56
2022/05/11 08:06:06;;;;;;;4.80;4.30;;;28.40;77.50;;;30.74;32.20;97920.38;5191054;28;20205;-58
2022/05/11 08:08:41;;;;;;;4.40;4.05;;;28.70;76.00;;;30.75;32.43;97914.19;5194459;28;20196;-53
2022/05/11 08:11:14;;;;;;;4.55;4.15;;;28.90;76.20;;;30.77;32.03;97909.75;5197990;27;20224;-55
2022/05/11 08:13:47;;;;;;;4.80;4.50;;;28.80;74.40;;;30.69;31.79;97919.59;5196985;28;20204;-54
2022/05/11 08:16:20;;;;;;;4.55;4.15;;;29.00;73.60;;;30.53;31.38;97917.31;5187925;28;20672;-56
2022/05/11 08:18:53;;;;;;;4.70;4.30;;;28.90;72.80;;;30.62;31.34;97915.34;5197231;28;20218;-58
2022/05/11 08:21:26;;;;;;;4.30;3.97;;;29.00;72.80;;;30.56;31.36;97916.34;5193418;28;20221;-53
2022/05/11 08:24:01;;;;;;;5.45;4.20;;;28.90;72.50;;;30.14;31.84;97923.41;5188632;28;20289;-57
2022/05/11 08:26:34;;;;;;;4.53;4.15;;;28.70;72.80;;;30.24;31.62;97917.06;5191513;28;20287;-53
2022/05/11 08:29:08;;;;;;;4.72;4.40;;;28.80;72.90;;;30.33;31.24;97919.50;5191508;28;20635;-53
2022/05/11 08:34:31;;;;;;;4.45;4.13;;;29.00;71.90;;;30.24;31.34;97909.13;5197883;27;20598;-59
2022/05/11 08:37:04;;;;;;;4.35;4.05;;;29.10;70.60;;;30.18;31.93;97911.88;5191112;27;20754;-56
2022/05/11 08:39:39;;;;;;;4.13;3.83;;;28.80;71.70;;;30.09;31.80;97905.88;5187396;28;20221;-57
2022/05/11 08:42:13;;;;;;;4.03;3.75;;;28.80;71.50;;;30.08;31.88;97908.56;5195624;27;20292;-57
2022/05/11 08:44:49;;;;;;;4.43;4.00;;;28.80;71.50;;;30.03;32.16;97895.47;5197630;27;20201;-60
2022/05/11 08:47:33;;;;;;;4.55;4.22;;;28.80;71.90;;;30.00;32.53;97895.53;5192731;27;20221;-55
2022/05/11 08:50:11;;;;;;;4.20;3.92;;;28.90;72.30;;;30.05;32.71;97893.69;5196636;27;20308;-55
2022/05/11 08:52:58;;;;;;;4.80;4.30;;;28.80;72.10;;;29.95;32.40;97897.38;5188918;28;20198;-55
2022/05/11 08:55:42;;;;;;;4.10;3.80;;;28.90;71.80;;;29.97;32.23;97902.66;5191182;28;20202;-54
2022/05/11 08:58:23;;;;;;;4.63;4.22;;;28.80;72.30;;;30.00;32.11;97894.66;5187763;28;21023;-55
2022/05/11 09:00:59;;;;;;;4.50;4.13;;;29.10;71.10;;;29.94;32.34;97894.78;5195542;28;20262;-56
2022/05/11 09:03:37;;;;;;;4.40;4.10;;;28.90;71.30;;;29.83;32.57;97889.72;5191227;28;20618;-58
2022/05/11 09:06:18;;;;;;;4.70;4.40;;;28.70;71.30;;;29.91;32.48;97894.84;5187824;28;20197;-55
2022/05/11 09:08:53;;;;;;;4.43;4.03;;;28.70;71.20;;;30.02;32.43;97893.75;5192074;27;20226;-57
2022/05/11 09:11:33;;;;;;;4.60;4.20;;;28.90;71.10;;;30.04;32.93;97894.56;5196818;27;20271;-58
2022/05/11 09:14:06;;;;;;;4.75;4.13;;;29.10;72.30;;;30.03;32.17;97892.84;5193356;27;20223;-54
2022/05/11 09:16:45;;;;;;;4.43;4.00;;;29.20;70.80;;;30.07;32.59;97883.94;5193187;28;20205;-59
2022/05/11 09:19:22;;;;;;;5.07;4.07;;;29.20;71.40;;;30.14;32.47;97881.22;5191136;28;20253;-56
2022/05/11 09:22:05;;;;;;;4.30;3.95;;;29.30;71.40;;;30.14;31.35;97884.72;5203093;27;20193;-61
2022/05/11 09:24:47;;;;;;;4.07;3.78;;;29.20;69.30;;;30.13;31.86;97890.84;5190183;28;20237;-54
2022/05/11 09:27:27;;;;;;;4.70;4.35;;;29.10;70.50;;;30.09;32.15;97884.78;5188919;28;20544;-55
2022/05/11 09:30:04;;;;;;;4.28;3.97;;;29.00;70.60;;;30.11;32.12;97891.81;5190099;28;20226;-52
2022/05/11 09:32:42;;;;;;;4.90;4.50;;;29.10;70.10;;;30.08;32.14;97884.84;5193509;28;20235;-52
2022/05/11 09:35:23;;;;;;;4.57;4.22;;;29.20;70.60;;;30.05;32.05;97877.84;5202081;27;20285;-51
2022/05/11 09:38:05;;;;;;;4.38;4.03;;;29.20;70.20;;;30.11;32.07;97871.59;5200387;27;20568;-59
2022/05/11 09:40:55;;;;;;;4.15;3.85;;;29.30;69.80;;;30.02;31.60;97864.75;5192870;28;20221;-58
2022/05/11 09:43:36;;;;;;;3.90;3.70;;;29.20;69.20;;;30.02;31.99;97867.38;5188774;28;22630;-55
2022/05/11 09:46:20;;;;;;;4.38;4.07;;;29.10;69.10;;;30.06;32.07;97866.41;5189539;27;20205;-59
2022/05/11 09:48:58;;;;;;;4.13;3.72;;;29.20;70.10;;;30.05;32.18;97871.72;5200019;27;20561;-53
2022/05/11 09:51:37;;;;;;;4.10;3.83;;;29.20;69.30;;;30.07;32.02;97865.47;5191879;28;20306;-54
2022/05/11 09:54:33;;;;;;;4.32;3.95;;;29.30;69.40;;;29.99;31.96;97862.16;5195447;27;20753;-53
2022/05/11 09:57:26;;;;;;;4.43;4.13;;;29.10;68.90;;;30.06;31.96;97852.34;5185040;28;20223;-52
2022/05/11 10:00:23;;;;;;;4.80;4.30;;;29.20;69.00;;;29.93;31.61;97850.84;5198372;27;20613;-52
2022/05/11 10:03:02;;;;;;;4.72;4.32;;;29.20;68.30;;;29.87;32.51;97862.41;5193247;27;20668;-53
2022/05/11 10:05:41;;;;;;;4.68;4.25;;;29.10;70.10;;;29.85;32.17;97844.00;5196968;27;20194;-54
2022/05/11 10:08:24;;;;;;;5.30;4.80;;;29.20;69.00;;;29.92;32.14;97844.72;5188998;28;20201;-55
2022/05/11 10:11:03;;;;;;;4.60;4.22;;;29.20;69.10;;;30.02;32.09;97841.00;5189339;28;20273;-53
2022/05/11 10:13:42;;;;;;;4.78;4.38;;;29.30;69.70;;;29.99;33.32;97843.72;5192826;27;20228;-55
2022/05/11 10:22:32;;;;;;;5.03;4.63;;;29.40;70.40;;;30.11;32.63;97839.09;5185536;28;20200;-55
2022/05/11 10:25:15;;;;;;;5.38;4.90;;;29.30;69.90;;;30.06;33.27;97837.41;5185922;28;20237;-54
2022/05/11 10:27:53;;;;;;;6.55;4.93;;;29.30;70.60;;;29.96;32.89;97829.69;5198927;27;20666;-52
2022/05/11 10:30:36;;;;;;;5.05;4.60;;;29.10;69.80;;;29.98;33.03;97827.91;5202263;27;20704;-54
2022/05/11 10:33:42;;;;;;;4.88;4.47;;;29.10;71.00;;;29.94;33.11;97820.97;5192928;27;20229;-55
2022/05/11 10:36:27;;;;;;;4.90;4.50;;;29.10;70.70;;;29.86;32.85;97808.81;5184400;28;20660;-52
2022/05/11 10:39:14;;;;;;;5.05;4.65;;;29.00;70.50;;;29.79;33.56;97807.22;5202373;27;20559;-54
2022/05/11 10:41:54;;;;;;;4.97;4.68;;;29.00;72.00;;;29.84;32.89;97804.47;5194588;28;20250;-56
2022/05/11 10:44:53;;;;;;;5.10;4.72;;;28.90;70.80;;;29.81;33.10;97807.19;5194415;28;20380;-54
2022/05/11 10:48:06;;;;;;;5.32;4.88;;;28.90;71.00;;;29.89;32.70;97810.53;5191401;28;20209;-56
2022/05/11 10:50:51;;;;;;;5.03;4.50;;;29.10;70.40;;;29.99;33.06;97798.91;5185720;28;20316;-53
2022/05/11 10:53:36;;;;;;;5.00;4.60;;;29.20;70.90;;;29.96;32.83;97793.69;5188377;28;20211;-56
2022/05/11 10:56:33;;;;;;;5.13;4.82;;;29.00;69.90;;;29.74;32.87;97803.81;5201475;27;20221;-59
2022/05/11 10:59:38;;;;;;;5.15;4.75;;;28.90;70.80;;;29.78;32.53;97789.66;5185690;28;20206;-55
2022/05/11 11:02:41;;;;;;;5.10;4.70;;;28.90;70.10;;;29.79;32.39;97785.25;5186838;28;20233;-54
2022/05/11 11:05:23;;;;;;;5.07;4.70;;;28.90;69.60;;;29.84;32.87;97780.75;5189746;28;20574;-51
2022/05/11 11:08:11;;;;;;;8.25;4.95;;;28.90;70.20;;;29.85;32.78;97782.50;5190982;28;20230;-52
2022/05/11 11:10:51;;;;;;;5.15;4.78;;;29.00;69.90;;;29.88;32.61;97771.03;5197590;28;20214;-52
2022/05/11 11:13:42;;;;;;;5.05;4.65;;;28.90;70.50;;;29.98;32.57;97759.38;5191697;28;20883;-58
2022/05/11 11:16:16;;;;;;;5.90;4.93;;;29.20;69.40;;;29.82;32.56;97764.13;5201106;28;20690;-55
2022/05/11 11:18:50;;;;;;;5.05;4.65;;;29.10;68.70;;;29.89;31.85;97770.13;5192220;28;20202;-57
2022/05/11 11:21:23;;;;;;;4.50;4.22;;;29.10;67.90;;;29.75;32.52;97757.22;5189297;28;22305;-58